createdAt,value
2017-04-16T00:00:47.166Z,10.90
2017-04-16T00:01:46.385Z,10.80
2017-04-16T00:02:45.635Z,10.92
2017-04-16T00:03:44.864Z,10.85
2017-04-16T00:04:44.145Z,9.78
2017-04-16T00:05:43.366Z,9.62
2017-04-16T00:06:42.656Z,9.88
2017-04-16T00:07:41.913Z,10.45
2017-04-16T00:08:41.145Z,10.63
2017-04-16T00:09:41.357Z,11.52
2017-04-16T00:10:40.640Z,10.50
2017-04-16T00:11:39.860Z,10.10
2017-04-16T00:12:39.085Z,10.68
2017-04-16T00:13:38.292Z,10.05
2017-04-16T00:14:37.533Z,9.03
2017-04-16T00:15:36.782Z,9.55
2017-04-16T00:16:36.305Z,10.73
2017-04-16T00:17:35.565Z,10.40
2017-04-16T00:18:34.814Z,10.40
2017-04-16T00:19:34.045Z,10.72
2017-04-16T00:20:33.273Z,10.05
2017-04-16T00:21:32.541Z,10.40
2017-04-16T00:22:32.550Z,10.30
2017-04-16T00:23:32.538Z,11.43
2017-04-16T00:24:31.769Z,9.47
2017-04-16T00:25:31.013Z,10.95
2017-04-16T00:26:30.297Z,10.83
2017-04-16T00:27:29.507Z,10.70
2017-04-16T00:28:28.764Z,9.97
2017-04-16T00:29:27.980Z,11.18
2017-04-16T00:30:27.208Z,11.90
2017-04-16T00:31:26.436Z,11.45
2017-04-16T00:32:25.704Z,10.85
2017-04-16T00:33:24.927Z,11.97
2017-04-16T00:34:24.453Z,11.53
2017-04-16T00:35:24.461Z,11.10
2017-04-16T00:36:24.615Z,12.18
2017-04-16T00:37:23.841Z,12.08
2017-04-16T00:38:23.108Z,12.17
2017-04-16T00:39:22.334Z,11.40
2017-04-16T00:40:22.413Z,11.55
2017-04-16T00:41:21.641Z,11.65
2017-04-16T00:42:20.901Z,12.32
2017-04-16T00:43:20.144Z,11.22
2017-04-16T00:44:19.381Z,12.47
2017-04-16T00:45:18.596Z,11.18
2017-04-16T00:46:18.880Z,10.98
2017-04-16T00:47:18.105Z,11.33
2017-04-16T00:48:17.340Z,11.42
2017-04-16T00:49:17.338Z,11.03
2017-04-16T00:50:16.592Z,10.87
2017-04-16T00:51:15.828Z,10.70
2017-04-16T00:52:15.117Z,11.23
2017-04-16T00:53:14.368Z,11.78
2017-04-16T00:54:13.689Z,12.65
2017-04-16T00:55:12.924Z,10.25
2017-04-16T00:56:12.133Z,10.82
2017-04-16T00:57:11.349Z,10.98
2017-04-16T00:58:10.622Z,10.52
2017-04-16T00:59:09.855Z,12.30
2017-04-16T01:00:10.914Z,10.37
2017-04-16T01:01:15.473Z,10.20
2017-04-16T01:02:20.044Z,10.67
2017-04-16T01:03:20.334Z,9.72
2017-04-16T01:04:19.635Z,10.13
2017-04-16T01:05:18.956Z,10.43
2017-04-16T01:06:18.189Z,10.47
2017-04-16T01:07:17.422Z,10.40
2017-04-16T01:08:17.418Z,10.55
2017-04-16T01:09:16.695Z,9.45
2017-04-16T01:10:15.904Z,9.58
2017-04-16T01:11:15.161Z,9.23
2017-04-16T01:12:14.397Z,9.98
2017-04-16T01:13:14.472Z,9.62
2017-04-16T01:14:13.844Z,9.40
2017-04-16T01:15:13.092Z,11.13
2017-04-16T01:16:12.308Z,9.77
2017-04-16T01:17:11.529Z,9.28
2017-04-16T01:18:10.749Z,8.80
2017-04-16T01:19:10.035Z,9.73
2017-04-16T01:20:10.103Z,10.73
2017-04-16T01:21:09.356Z,9.80
2017-04-16T01:22:08.654Z,11.45
2017-04-16T01:23:07.910Z,9.87
2017-04-16T01:24:07.897Z,10.38
2017-04-16T01:25:07.140Z,9.82
2017-04-16T01:26:06.396Z,10.00
2017-04-16T01:27:06.681Z,9.75
2017-04-16T01:28:06.708Z,11.77
2017-04-16T01:29:05.978Z,10.55
2017-04-16T01:30:05.227Z,10.43
2017-04-16T01:31:04.457Z,10.43
2017-04-16T01:32:03.732Z,10.33
2017-04-16T01:33:02.989Z,10.28
2017-04-16T01:34:02.224Z,9.58
2017-04-16T01:35:01.484Z,9.55
2017-04-16T01:36:00.708Z,8.97
2017-04-16T01:36:59.959Z,9.83
2017-04-16T01:37:59.227Z,10.05
2017-04-16T01:38:58.514Z,10.27
2017-04-16T01:39:58.487Z,9.90
2017-04-16T01:40:57.712Z,10.47
2017-04-16T01:41:56.929Z,9.95
2017-04-16T01:42:56.221Z,9.40
2017-04-16T01:43:55.493Z,9.40
2017-04-16T01:44:54.763Z,10.85
2017-04-16T01:45:53.997Z,11.27
2017-04-16T01:46:53.282Z,9.32
2017-04-16T01:47:52.516Z,10.57
2017-04-16T01:48:51.820Z,9.85
2017-04-16T01:49:51.071Z,10.27
2017-04-16T01:50:50.324Z,10.02
2017-04-16T01:51:50.302Z,9.28
2017-04-16T01:52:49.508Z,9.28
2017-04-16T01:53:48.748Z,9.25
2017-04-16T01:54:47.966Z,9.15
2017-04-16T01:55:47.245Z,10.03
2017-04-16T01:56:46.507Z,9.95
2017-04-16T01:57:45.762Z,9.50
2017-04-16T01:58:45.016Z,9.67
2017-04-16T01:59:44.316Z,9.23
2017-04-16T02:00:43.597Z,9.90
2017-04-16T02:01:42.857Z,10.60
2017-04-16T02:02:42.163Z,9.70
2017-04-16T02:03:41.393Z,9.30
2017-04-16T02:04:40.924Z,9.23
2017-04-16T02:05:40.177Z,9.37
2017-04-16T02:06:40.169Z,9.62
2017-04-16T02:07:39.405Z,9.57
2017-04-16T02:08:38.676Z,9.23
2017-04-16T02:09:37.973Z,9.75
2017-04-16T02:10:37.226Z,8.47
2017-04-16T02:11:36.450Z,9.02
2017-04-16T02:12:35.693Z,10.08
2017-04-16T02:13:34.920Z,9.90
2017-04-16T02:14:34.169Z,8.77
2017-04-16T02:15:33.406Z,8.73
2017-04-16T02:16:32.641Z,9.70
2017-04-16T02:17:31.912Z,8.95
2017-04-16T02:18:31.148Z,8.87
2017-04-16T02:19:30.385Z,8.40
2017-04-16T02:20:30.016Z,9.35
2017-04-16T02:21:29.261Z,8.55
2017-04-16T02:22:28.514Z,8.65
2017-04-16T02:23:27.763Z,8.47
2017-04-16T02:24:26.990Z,8.77
2017-04-16T02:25:26.221Z,8.63
2017-04-16T02:26:25.489Z,9.68
2017-04-16T02:27:25.517Z,9.00
2017-04-16T02:28:24.780Z,8.00
2017-04-16T02:29:24.796Z,8.90
2017-04-16T02:30:24.041Z,8.82
2017-04-16T02:31:23.361Z,9.43
2017-04-16T02:32:22.620Z,9.02
2017-04-16T02:33:21.888Z,8.05
2017-04-16T02:34:21.177Z,8.95
2017-04-16T02:35:20.454Z,8.08
2017-04-16T02:36:19.738Z,8.47
2017-04-16T02:37:19.002Z,7.87
2017-04-16T02:38:18.262Z,8.12
2017-04-16T02:39:17.521Z,7.40
2017-04-16T02:40:16.752Z,7.88
2017-04-16T02:41:15.989Z,9.80
2017-04-16T02:42:15.244Z,8.63
2017-04-16T02:43:14.598Z,8.52
2017-04-16T02:44:14.113Z,7.70
2017-04-16T02:45:13.421Z,8.32
2017-04-16T02:46:12.685Z,8.15
2017-04-16T02:47:11.901Z,8.48
2017-04-16T02:48:11.152Z,7.07
2017-04-16T02:49:10.499Z,7.92
2017-04-16T02:50:09.757Z,8.08
2017-04-16T02:51:08.974Z,8.32
2017-04-16T02:52:08.955Z,7.83
2017-04-16T02:53:08.225Z,7.90
2017-04-16T02:54:07.455Z,7.83
2017-04-16T02:55:06.680Z,8.37
2017-04-16T02:56:06.317Z,7.48
2017-04-16T02:57:05.588Z,7.60
2017-04-16T02:58:04.860Z,8.17
2017-04-16T02:59:04.126Z,7.62
2017-04-16T03:00:03.349Z,7.40
2017-04-16T03:01:02.630Z,9.18
2017-04-16T03:02:01.920Z,7.70
2017-04-16T03:03:01.146Z,7.90
2017-04-16T03:04:00.397Z,7.42
2017-04-16T03:04:59.638Z,7.93
2017-04-16T03:05:58.886Z,7.60
2017-04-16T03:06:58.163Z,8.02
2017-04-16T03:07:57.421Z,7.80
2017-04-16T03:08:56.636Z,7.53
2017-04-16T03:09:55.902Z,7.85
2017-04-16T03:10:55.896Z,7.22
2017-04-16T03:11:55.150Z,7.00
2017-04-16T03:12:54.376Z,7.40
2017-04-16T03:13:53.856Z,7.38
2017-04-16T03:14:53.081Z,7.08
2017-04-16T03:15:53.040Z,7.82
2017-04-16T03:16:52.257Z,7.60
2017-04-16T03:17:51.505Z,7.63
2017-04-16T03:18:50.764Z,7.37
2017-04-16T03:19:50.040Z,7.33
2017-04-16T03:20:50.005Z,6.73
2017-04-16T03:21:49.242Z,7.38
2017-04-16T03:22:49.229Z,7.02
2017-04-16T03:23:48.471Z,8.38
2017-04-16T03:24:47.740Z,7.93
2017-04-16T03:25:47.000Z,7.15
2017-04-16T03:26:46.217Z,7.10
2017-04-16T03:27:45.440Z,8.20
2017-04-16T03:28:44.660Z,6.60
2017-04-16T03:29:43.879Z,6.52
2017-04-16T03:30:43.116Z,6.95
2017-04-16T03:31:42.637Z,7.65
2017-04-16T03:32:41.963Z,6.78
2017-04-16T03:33:41.213Z,7.40
2017-04-16T03:34:40.413Z,6.40
2017-04-16T03:35:39.641Z,6.77
2017-04-16T03:36:38.852Z,6.52
2017-04-16T03:37:38.169Z,8.00
2017-04-16T03:38:37.433Z,6.38
2017-04-16T03:39:36.640Z,7.27
2017-04-16T03:40:35.880Z,8.00
2017-04-16T03:41:35.090Z,7.13
2017-04-16T03:42:34.326Z,7.28
2017-04-16T03:43:33.805Z,7.47
2017-04-16T03:44:33.800Z,8.32
2017-04-16T03:45:33.025Z,7.08
2017-04-16T03:46:32.996Z,7.83
2017-04-16T03:47:32.260Z,7.17
2017-04-16T03:48:31.485Z,7.22
2017-04-16T03:49:30.769Z,8.05
2017-04-16T03:50:30.025Z,7.70
2017-04-16T03:51:29.304Z,7.65
2017-04-16T03:52:28.541Z,7.97
2017-04-16T03:53:27.766Z,8.10
2017-04-16T03:54:27.733Z,7.63
2017-04-16T03:55:26.976Z,7.40
2017-04-16T03:56:26.206Z,7.88
2017-04-16T03:57:25.444Z,8.15
2017-04-16T03:58:24.692Z,8.13
2017-04-16T03:59:23.912Z,8.02
2017-04-16T04:00:23.344Z,8.50
2017-04-16T04:01:22.813Z,7.40
2017-04-16T04:02:22.778Z,7.20
2017-04-16T04:03:22.023Z,8.67
2017-04-16T04:04:21.263Z,8.68
2017-04-16T04:05:20.500Z,8.17
2017-04-16T04:06:19.703Z,8.30
2017-04-16T04:07:19.045Z,7.92
2017-04-16T04:08:18.290Z,8.00
2017-04-16T04:09:17.513Z,7.67
2017-04-16T04:10:16.764Z,7.43
2017-04-16T04:11:16.048Z,8.62
2017-04-16T04:12:15.297Z,8.62
2017-04-16T04:13:14.717Z,8.10
2017-04-16T04:14:13.937Z,9.17
2017-04-16T04:15:13.155Z,7.95
2017-04-16T04:16:12.400Z,7.98
2017-04-16T04:17:11.632Z,7.77
2017-04-16T04:18:10.878Z,7.80
2017-04-16T04:19:10.524Z,8.08
2017-04-16T04:20:09.776Z,8.73
2017-04-16T04:21:09.029Z,8.00
2017-04-16T04:22:09.078Z,8.53
2017-04-16T04:23:08.344Z,7.48
2017-04-16T04:24:07.549Z,8.65
2017-04-16T04:25:06.821Z,8.02
2017-04-16T04:26:05.296Z,8.65
2017-04-16T04:27:04.537Z,7.78
2017-04-16T04:28:03.737Z,9.12
2017-04-16T04:29:03.004Z,8.60
2017-04-16T04:30:02.254Z,8.67
2017-04-16T04:31:01.776Z,7.63
2017-04-16T04:32:01.006Z,8.95
2017-04-16T04:33:00.971Z,8.90
2017-04-16T04:34:00.191Z,8.77
2017-04-16T04:34:59.412Z,8.60
2017-04-16T04:35:58.648Z,9.72
2017-04-16T04:36:57.923Z,10.83
2017-04-16T04:37:57.148Z,9.18
2017-04-16T04:38:56.396Z,9.23
2017-04-16T04:39:55.650Z,9.42
2017-04-16T04:40:54.888Z,8.80
2017-04-16T04:41:54.116Z,9.48
2017-04-16T04:42:53.590Z,8.67
2017-04-16T04:43:52.811Z,9.72
2017-04-16T04:44:52.099Z,9.53
2017-04-16T04:45:52.082Z,10.27
2017-04-16T04:46:51.304Z,9.88
2017-04-16T04:47:51.309Z,9.67
2017-04-16T04:48:51.328Z,9.93
2017-04-16T04:49:50.573Z,10.15
2017-04-16T04:50:49.820Z,9.90
2017-04-16T04:51:49.084Z,10.72
2017-04-16T04:52:48.381Z,9.55
2017-04-16T04:53:48.333Z,9.38
2017-04-16T04:54:47.617Z,10.33
2017-04-16T04:55:46.820Z,9.68
2017-04-16T04:56:46.041Z,9.15
2017-04-16T04:57:46.031Z,10.37
2017-04-16T04:58:45.243Z,9.78
2017-04-16T04:59:44.460Z,9.72
2017-04-16T05:00:43.965Z,10.15
2017-04-16T05:01:43.201Z,10.35
2017-04-16T05:02:42.441Z,9.77
2017-04-16T05:03:41.663Z,9.97
2017-04-16T05:04:40.896Z,11.37
2017-04-16T05:05:40.138Z,9.72
2017-04-16T05:06:39.404Z,10.23
2017-04-16T05:07:38.606Z,8.93
2017-04-16T05:08:37.825Z,9.68
2017-04-16T05:09:37.044Z,10.48
2017-04-16T05:10:36.273Z,9.35
2017-04-16T05:11:35.519Z,10.38
2017-04-16T05:12:34.811Z,9.50
2017-04-16T05:13:34.038Z,9.97
2017-04-16T05:14:33.306Z,9.92
2017-04-16T05:15:32.549Z,9.82
2017-04-16T05:16:31.828Z,9.88
2017-04-16T05:17:31.063Z,10.07
2017-04-16T05:18:30.552Z,10.07
2017-04-16T05:19:30.548Z,10.43
2017-04-16T05:20:29.776Z,9.57
2017-04-16T05:21:29.015Z,8.82
2017-04-16T05:22:28.231Z,9.20
2017-04-16T05:23:27.449Z,8.70
2017-04-16T05:24:26.711Z,9.22
2017-04-16T05:25:25.949Z,9.18
2017-04-16T05:26:25.160Z,9.07
2017-04-16T05:27:24.380Z,8.58
2017-04-16T05:28:23.640Z,10.03
2017-04-16T05:29:22.864Z,9.38
2017-04-16T05:30:22.386Z,8.20
2017-04-16T05:31:21.656Z,8.72
2017-04-16T05:32:20.906Z,8.87
2017-04-16T05:33:20.152Z,8.35
2017-04-16T05:34:19.377Z,8.35
2017-04-16T05:35:18.604Z,9.45
2017-04-16T05:36:17.895Z,8.60
2017-04-16T05:37:17.117Z,8.55
2017-04-16T05:38:16.335Z,8.73
2017-04-16T05:39:15.630Z,9.35
2017-04-16T05:40:14.905Z,8.35
2017-04-16T05:41:14.144Z,8.25
2017-04-16T05:42:13.689Z,8.70
2017-04-16T05:43:13.283Z,8.65
2017-04-16T05:44:12.490Z,8.43
2017-04-16T05:45:11.733Z,8.48
2017-04-16T05:46:10.961Z,8.70
2017-04-16T05:47:10.172Z,8.40
2017-04-16T05:48:09.416Z,7.93
2017-04-16T05:49:08.617Z,8.67
2017-04-16T05:50:07.856Z,8.80
2017-04-16T05:51:07.080Z,8.10
2017-04-16T05:52:06.292Z,7.83
2017-04-16T05:53:05.487Z,7.58
2017-04-16T05:54:05.080Z,7.77
2017-04-16T05:55:04.320Z,7.73
2017-04-16T05:56:03.515Z,7.85
2017-04-16T05:57:02.779Z,7.72
2017-04-16T05:58:02.019Z,8.30
2017-04-16T05:59:01.234Z,6.62
2017-04-16T06:00:00.481Z,8.08
2017-04-16T06:00:59.717Z,7.73
2017-04-16T06:01:58.960Z,8.50
2017-04-16T06:02:58.213Z,7.73
2017-04-16T06:03:58.169Z,8.52
2017-04-16T06:04:57.411Z,9.38
2017-04-16T06:05:57.426Z,8.12
2017-04-16T06:06:56.678Z,7.70
2017-04-16T06:07:55.910Z,7.82
2017-04-16T06:08:55.144Z,8.08
2017-04-16T06:09:54.358Z,8.40
2017-04-16T06:10:53.692Z,8.22
2017-04-16T06:11:53.225Z,7.70
2017-04-16T06:12:52.432Z,7.53
2017-04-16T06:13:51.678Z,8.83
2017-04-16T06:14:50.884Z,7.40
2017-04-16T06:15:50.113Z,7.62
2017-04-16T06:16:50.088Z,8.63
2017-04-16T06:17:49.357Z,9.20
2017-04-16T06:18:48.566Z,8.75
2017-04-16T06:19:47.776Z,9.57
2017-04-16T06:20:47.004Z,8.20
2017-04-16T06:21:46.213Z,8.92
2017-04-16T06:22:45.457Z,8.48
2017-04-16T06:23:45.141Z,8.92
2017-04-16T06:24:44.349Z,8.08
2017-04-16T06:25:44.416Z,8.72
2017-04-16T06:26:43.635Z,8.30
2017-04-16T06:27:42.850Z,8.90
2017-04-16T06:28:42.065Z,8.80
2017-04-16T06:29:41.867Z,9.07
2017-04-16T06:30:41.091Z,8.93
2017-04-16T06:31:40.304Z,9.37
2017-04-16T06:32:40.252Z,9.78
2017-04-16T06:33:39.488Z,8.38
2017-04-16T06:34:38.745Z,9.73
2017-04-16T06:35:38.036Z,8.48
2017-04-16T06:36:37.284Z,8.90
2017-04-16T06:37:36.527Z,8.05
2017-04-16T06:38:35.752Z,9.32
2017-04-16T06:39:35.785Z,8.78
2017-04-16T06:40:35.009Z,8.42
2017-04-16T06:41:35.226Z,7.93
2017-04-16T06:42:34.444Z,9.75
2017-04-16T06:43:34.410Z,9.23
2017-04-16T06:44:33.648Z,8.62
2017-04-16T06:45:32.888Z,8.85
2017-04-16T06:46:32.115Z,9.05
2017-04-16T06:47:32.120Z,9.27
2017-04-16T06:48:31.331Z,9.65
2017-04-16T06:49:30.548Z,9.32
2017-04-16T06:50:29.767Z,9.52
2017-04-16T06:51:29.020Z,9.38
2017-04-16T06:52:28.248Z,9.67
2017-04-16T06:53:27.737Z,9.05
2017-04-16T06:54:26.977Z,9.33
2017-04-16T06:55:26.209Z,9.45
2017-04-16T06:56:25.421Z,8.58
2017-04-16T06:57:24.628Z,9.55
2017-04-16T06:58:24.618Z,9.68
2017-04-16T06:59:23.881Z,9.82
2017-04-16T07:00:23.161Z,9.95
2017-04-16T07:01:22.385Z,9.23
2017-04-16T07:02:21.598Z,8.85
2017-04-16T07:03:21.537Z,9.35
2017-04-16T07:04:20.821Z,9.82
2017-04-16T07:05:20.046Z,9.63
2017-04-16T07:06:19.279Z,9.00
2017-04-16T07:07:18.513Z,10.53
2017-04-16T07:08:17.753Z,8.42
2017-04-16T07:09:16.985Z,10.18
2017-04-16T07:10:16.223Z,9.73
2017-04-16T07:11:15.785Z,9.55
2017-04-16T07:12:14.993Z,9.68
2017-04-16T07:13:14.258Z,9.03
2017-04-16T07:14:13.479Z,8.63
2017-04-16T07:15:12.732Z,9.15
2017-04-16T07:16:11.966Z,8.62
2017-04-16T07:17:11.960Z,8.07
2017-04-16T07:18:11.173Z,8.70
2017-04-16T07:19:10.548Z,9.55
2017-04-16T07:20:09.876Z,9.20
2017-04-16T07:21:09.388Z,9.10
2017-04-16T07:22:08.629Z,8.80
2017-04-16T07:23:08.930Z,8.87
2017-04-16T07:24:08.161Z,8.83
2017-04-16T07:25:07.385Z,9.38
2017-04-16T07:26:06.613Z,9.67
2017-04-16T07:27:06.583Z,9.32
2017-04-16T07:28:05.823Z,9.95
2017-04-16T07:29:05.080Z,9.28
2017-04-16T07:30:04.308Z,10.47
2017-04-16T07:31:03.520Z,9.37
2017-04-16T07:32:02.989Z,7.95
2017-04-16T07:33:02.200Z,9.18
2017-04-16T07:34:01.429Z,8.77
2017-04-16T07:35:00.977Z,8.85
2017-04-16T07:36:00.203Z,9.58
2017-04-16T07:36:59.421Z,8.25
2017-04-16T07:37:59.402Z,9.23
2017-04-16T07:38:58.648Z,9.15
2017-04-16T07:39:57.865Z,8.95
2017-04-16T07:40:57.118Z,8.48
2017-04-16T07:41:56.330Z,9.43
2017-04-16T07:42:55.562Z,9.43
2017-04-16T07:43:55.032Z,8.45
2017-04-16T07:44:54.984Z,8.75
2017-04-16T07:45:54.964Z,9.30
2017-04-16T07:46:54.208Z,9.92
2017-04-16T07:47:53.438Z,8.92
2017-04-16T07:48:52.649Z,9.65
2017-04-16T07:49:52.622Z,9.20
2017-04-16T07:50:51.823Z,8.65
2017-04-16T07:51:51.058Z,8.97
2017-04-16T07:52:50.709Z,8.23
2017-04-16T07:53:49.968Z,8.60
2017-04-16T07:54:49.188Z,7.07
2017-04-16T07:55:48.428Z,7.18
2017-04-16T07:56:47.644Z,8.35
2017-04-16T07:57:46.922Z,8.00
2017-04-16T07:58:46.201Z,8.32
2017-04-16T07:59:45.445Z,8.30
2017-04-16T08:00:44.698Z,7.60
2017-04-16T08:01:43.921Z,8.95
2017-04-16T08:02:43.152Z,7.63
2017-04-16T08:03:42.390Z,7.83
2017-04-16T08:04:41.897Z,8.37
2017-04-16T08:05:41.156Z,8.12
2017-04-16T08:06:40.381Z,7.63
2017-04-16T08:07:40.362Z,8.32
2017-04-16T08:08:39.573Z,7.57
2017-04-16T08:09:38.790Z,8.33
2017-04-16T08:10:38.180Z,7.40
2017-04-16T08:11:37.410Z,7.30
2017-04-16T08:12:37.402Z,7.13
2017-04-16T08:13:36.672Z,7.37
2017-04-16T08:14:35.921Z,7.23
2017-04-16T08:15:35.149Z,8.58
2017-04-16T08:16:34.710Z,7.82
2017-04-16T08:17:34.080Z,7.38
2017-04-16T08:18:33.300Z,7.32
2017-04-16T08:19:32.520Z,7.30
2017-04-16T08:20:31.774Z,8.18
2017-04-16T08:21:30.993Z,7.48
2017-04-16T08:22:30.236Z,7.00
2017-04-16T08:23:29.444Z,6.60
2017-04-16T08:24:28.664Z,6.78
2017-04-16T08:25:27.873Z,7.18
2017-04-16T08:26:27.117Z,7.60
2017-04-16T08:27:26.334Z,6.93
2017-04-16T08:28:25.610Z,7.33
2017-04-16T08:29:25.570Z,7.43
2017-04-16T08:30:24.834Z,7.33
2017-04-16T08:31:24.080Z,8.73
2017-04-16T08:32:23.286Z,7.07
2017-04-16T08:33:23.231Z,7.18
2017-04-16T08:34:22.855Z,7.78
2017-04-16T08:35:22.802Z,6.62
2017-04-16T08:36:22.036Z,6.78
2017-04-16T08:37:21.241Z,6.13
2017-04-16T08:38:20.456Z,7.30
2017-04-16T08:39:20.425Z,6.20
2017-04-16T08:40:19.928Z,6.80
2017-04-16T08:41:19.148Z,6.72
2017-04-16T08:42:19.108Z,6.85
2017-04-16T08:43:18.320Z,7.08
2017-04-16T08:44:17.543Z,6.13
2017-04-16T08:45:16.744Z,5.57
2017-04-16T08:46:16.044Z,6.10
2017-04-16T08:47:15.265Z,6.75
2017-04-16T08:48:14.487Z,6.22
2017-04-16T08:49:14.461Z,6.12
2017-04-16T08:50:13.686Z,5.32
2017-04-16T08:51:13.824Z,6.30
2017-04-16T08:52:13.080Z,6.65
2017-04-16T08:53:12.293Z,6.70
2017-04-16T08:54:11.517Z,6.25
2017-04-16T08:55:10.736Z,6.15
2017-04-16T08:56:09.952Z,6.62
2017-04-16T08:57:09.180Z,6.62
2017-04-16T08:58:08.680Z,5.57
2017-04-16T08:59:07.976Z,5.53
2017-04-16T09:00:07.216Z,5.32
2017-04-16T09:01:06.449Z,6.70
2017-04-16T09:02:05.689Z,5.97
2017-04-16T09:03:05.665Z,5.80
2017-04-16T09:04:04.924Z,5.90
2017-04-16T09:05:04.158Z,5.65
2017-04-16T09:06:03.405Z,5.03
2017-04-16T09:07:02.630Z,6.37
2017-04-16T09:08:01.860Z,5.15
2017-04-16T09:09:01.079Z,5.18
2017-04-16T09:10:00.692Z,5.35
2017-04-16T09:10:59.941Z,5.25
2017-04-16T09:11:59.184Z,5.35
2017-04-16T09:12:58.413Z,5.68
2017-04-16T09:13:57.650Z,5.13
2017-04-16T09:14:56.861Z,4.65
2017-04-16T09:15:56.109Z,5.82
2017-04-16T09:16:55.334Z,5.33
2017-04-16T09:17:54.558Z,5.20
2017-04-16T09:18:53.840Z,5.50
2017-04-16T09:19:53.053Z,5.75
2017-04-16T09:20:52.281Z,5.03
2017-04-16T09:21:51.979Z,4.82
2017-04-16T09:22:51.218Z,4.97
2017-04-16T09:23:50.465Z,5.50
2017-04-16T09:24:49.678Z,5.22
2017-04-16T09:25:48.882Z,5.72
2017-04-16T09:26:48.126Z,5.57
2017-04-16T09:27:48.112Z,4.88
2017-04-16T09:28:47.331Z,5.28
2017-04-16T09:29:46.569Z,5.28
2017-04-16T09:30:45.812Z,5.00
2017-04-16T09:31:45.040Z,4.53
2017-04-16T09:32:44.280Z,5.07
2017-04-16T09:33:43.521Z,5.42
2017-04-16T09:34:42.732Z,5.47
2017-04-16T09:35:41.960Z,5.17
2017-04-16T09:36:41.185Z,6.10
2017-04-16T09:37:40.465Z,4.98
2017-04-16T09:38:39.736Z,5.45
2017-04-16T09:39:38.984Z,5.70
2017-04-16T09:40:38.226Z,4.68
2017-04-16T09:41:38.198Z,5.28
2017-04-16T09:42:37.413Z,5.20
2017-04-16T09:43:37.376Z,5.62
2017-04-16T09:44:39.183Z,4.85
2017-04-16T09:45:38.487Z,4.75
2017-04-16T09:46:37.756Z,5.28
2017-04-16T09:47:37.737Z,4.88
2017-04-16T09:48:36.970Z,5.05
2017-04-16T09:49:36.181Z,4.42
2017-04-16T09:50:35.381Z,5.10
2017-04-16T09:51:34.884Z,5.12
2017-04-16T09:52:34.096Z,5.00
2017-04-16T09:53:33.311Z,5.47
2017-04-16T09:54:33.269Z,4.67
2017-04-16T09:55:32.492Z,4.35
2017-04-16T09:56:31.710Z,5.48
2017-04-16T09:57:30.954Z,4.80
2017-04-16T09:58:30.200Z,5.48
2017-04-16T09:59:29.421Z,5.30
2017-04-16T10:00:28.644Z,4.90
2017-04-16T10:01:27.880Z,5.13
2017-04-16T10:02:27.155Z,5.22
2017-04-16T10:03:26.413Z,4.50
2017-04-16T10:04:26.400Z,5.58
2017-04-16T10:05:25.633Z,4.83
2017-04-16T10:06:24.864Z,5.58
2017-04-16T10:07:24.830Z,4.57
2017-04-16T10:08:24.057Z,4.72
2017-04-16T10:09:24.036Z,5.65
2017-04-16T10:10:23.253Z,5.43
2017-04-16T10:11:22.626Z,5.48
2017-04-16T10:12:21.894Z,5.02
2017-04-16T10:13:21.129Z,5.53
2017-04-16T10:14:20.343Z,5.38
2017-04-16T10:15:19.809Z,5.17
2017-04-16T10:16:19.033Z,4.77
2017-04-16T10:17:18.251Z,5.27
2017-04-16T10:18:17.489Z,5.25
2017-04-16T10:19:16.726Z,4.85
2017-04-16T10:20:15.956Z,5.13
2017-04-16T10:21:15.250Z,4.92
2017-04-16T10:22:14.512Z,4.45
2017-04-16T10:23:13.732Z,4.85
2017-04-16T10:24:12.949Z,4.58
2017-04-16T10:25:12.926Z,4.90
2017-04-16T10:26:12.144Z,5.70
2017-04-16T10:27:12.436Z,4.98
2017-04-16T10:28:11.660Z,4.32
2017-04-16T10:29:10.920Z,5.43
2017-04-16T10:30:10.177Z,5.20
2017-04-16T10:31:09.408Z,4.55
2017-04-16T10:32:08.629Z,5.37
2017-04-16T10:33:07.883Z,5.08
2017-04-16T10:34:07.116Z,5.02
2017-04-16T10:35:06.368Z,4.95
2017-04-16T10:36:06.332Z,6.10
2017-04-16T10:37:05.553Z,4.70
2017-04-16T10:38:04.793Z,5.28
2017-04-16T10:39:05.652Z,4.73
2017-04-16T10:40:04.881Z,4.72
2017-04-16T10:41:04.850Z,4.70
2017-04-16T10:42:04.096Z,4.63
2017-04-16T10:43:03.313Z,4.75
2017-04-16T10:44:02.561Z,4.55
2017-04-16T10:45:01.796Z,4.55
2017-04-16T10:46:01.012Z,4.53
2017-04-16T10:47:00.228Z,4.97
2017-04-16T10:47:59.441Z,5.58
2017-04-16T10:48:58.673Z,4.82
2017-04-16T10:49:57.908Z,5.07
2017-04-16T10:50:57.171Z,4.83
2017-04-16T10:51:57.138Z,5.28
2017-04-16T10:52:56.381Z,4.23
2017-04-16T10:53:55.585Z,5.18
2017-04-16T10:54:54.821Z,5.13
2017-04-16T10:55:54.053Z,5.00
2017-04-16T10:56:53.293Z,4.57
2017-04-16T10:57:52.500Z,4.23
2017-04-16T10:58:51.717Z,4.32
2017-04-16T10:59:50.921Z,4.15
2017-04-16T11:00:50.153Z,4.93
2017-04-16T11:01:49.387Z,5.68
2017-04-16T11:02:48.637Z,5.05
2017-04-16T11:03:47.865Z,5.23
2017-04-16T11:04:47.094Z,5.35
2017-04-16T11:05:46.300Z,4.67
2017-04-16T11:06:45.508Z,4.47
2017-04-16T11:07:44.738Z,4.45
2017-04-16T11:08:43.993Z,4.78
2017-04-16T11:09:43.205Z,4.33
2017-04-16T11:10:42.438Z,5.53
2017-04-16T11:11:41.663Z,4.58
2017-04-16T11:12:41.640Z,4.52
2017-04-16T11:13:40.913Z,4.48
2017-04-16T11:14:40.185Z,4.63
2017-04-16T11:15:39.419Z,4.78
2017-04-16T11:16:38.648Z,4.90
2017-04-16T11:17:37.877Z,4.58
2017-04-16T11:18:37.100Z,4.82
2017-04-16T11:19:36.309Z,4.13
2017-04-16T11:20:36.784Z,3.78
2017-04-16T11:21:36.006Z,4.52
2017-04-16T11:22:35.213Z,4.00
2017-04-16T11:23:34.532Z,3.90
2017-04-16T11:24:33.755Z,4.53
2017-04-16T11:25:33.000Z,4.22
2017-04-16T11:26:32.270Z,4.25
2017-04-16T11:27:31.480Z,4.22
2017-04-16T11:28:30.700Z,4.13
2017-04-16T11:29:30.740Z,4.15
2017-04-16T11:30:29.965Z,3.83
2017-04-16T11:31:29.205Z,3.77
2017-04-16T11:32:28.688Z,3.32
2017-04-16T11:33:27.950Z,4.30
2017-04-16T11:34:27.215Z,3.33
2017-04-16T11:35:26.438Z,3.93
2017-04-16T11:36:25.944Z,3.88
2017-04-16T11:37:25.185Z,4.37
2017-04-16T11:38:24.427Z,3.57
2017-04-16T11:39:23.654Z,3.75
2017-04-16T11:40:22.879Z,3.40
2017-04-16T11:41:22.108Z,3.23
2017-04-16T11:42:21.377Z,2.95
2017-04-16T11:43:20.588Z,3.42
2017-04-16T11:44:19.851Z,3.40
2017-04-16T11:45:19.086Z,3.27
2017-04-16T11:46:19.068Z,3.20
2017-04-16T11:47:18.324Z,3.88
2017-04-16T11:48:17.549Z,3.32
2017-04-16T11:49:16.772Z,2.93
2017-04-16T11:50:16.057Z,3.12
2017-04-16T11:51:15.296Z,3.40
2017-04-16T11:52:15.280Z,3.87
2017-04-16T11:53:14.497Z,3.87
2017-04-16T11:54:13.718Z,3.65
2017-04-16T11:55:13.680Z,3.23
2017-04-16T11:56:13.184Z,3.37
2017-04-16T11:57:12.433Z,4.00
2017-04-16T11:58:11.657Z,3.65
2017-04-16T11:59:10.992Z,4.22
2017-04-16T12:00:11.024Z,3.37
2017-04-16T12:01:10.253Z,3.42
2017-04-16T12:02:09.867Z,3.27
2017-04-16T12:03:09.100Z,3.22
2017-04-16T12:04:08.333Z,3.50
2017-04-16T12:05:07.577Z,3.32
2017-04-16T12:06:06.802Z,3.47
2017-04-16T12:07:06.027Z,3.50
2017-04-16T12:08:06.107Z,3.52
2017-04-16T12:09:05.430Z,3.50
2017-04-16T12:10:04.784Z,3.43
2017-04-16T12:11:04.001Z,3.43
2017-04-16T12:12:03.223Z,3.60
2017-04-16T12:13:02.480Z,3.18
2017-04-16T12:14:01.962Z,3.55
2017-04-16T12:15:01.169Z,3.20
2017-04-16T12:16:00.381Z,3.40
2017-04-16T12:16:59.609Z,3.03
2017-04-16T12:17:58.842Z,3.30
2017-04-16T12:18:58.804Z,3.40
2017-04-16T12:19:58.064Z,3.33
2017-04-16T12:20:57.286Z,4.32
2017-04-16T12:21:56.517Z,3.65
2017-04-16T12:22:56.486Z,3.25
2017-04-16T12:23:55.721Z,3.62
2017-04-16T12:24:54.933Z,3.57
2017-04-16T12:25:54.409Z,3.38
2017-04-16T12:26:53.624Z,3.17
2017-04-16T12:27:52.844Z,3.57
2017-04-16T12:28:52.117Z,3.13
2017-04-16T12:29:51.380Z,4.13
2017-04-16T12:30:50.595Z,2.97
2017-04-16T12:31:50.105Z,3.08
2017-04-16T12:32:49.329Z,3.43
2017-04-16T12:33:49.328Z,3.15
2017-04-16T12:34:49.281Z,3.28
2017-04-16T12:35:48.517Z,3.72
2017-04-16T12:36:47.774Z,3.45
2017-04-16T12:37:47.009Z,3.42
2017-04-16T12:38:47.003Z,3.67
2017-04-16T12:39:46.225Z,3.97
2017-04-16T12:40:45.456Z,3.47
2017-04-16T12:41:44.704Z,4.18
2017-04-16T12:42:43.931Z,3.22
2017-04-16T12:43:43.444Z,3.45
2017-04-16T12:44:42.659Z,3.85
2017-04-16T12:45:42.633Z,4.03
2017-04-16T12:46:41.873Z,4.18
2017-04-16T12:47:41.121Z,4.10
2017-04-16T12:48:40.333Z,4.47
2017-04-16T12:49:40.332Z,4.12
2017-04-16T12:50:39.584Z,4.00
2017-04-16T12:51:38.848Z,3.35
2017-04-16T12:52:38.074Z,3.53
2017-04-16T12:53:37.277Z,3.93
2017-04-16T12:54:36.501Z,3.78
2017-04-16T12:55:35.753Z,4.57
2017-04-16T12:56:34.962Z,5.23
2017-04-16T12:57:34.908Z,4.38
2017-04-16T12:58:34.303Z,4.48
2017-04-16T12:59:33.673Z,4.35
2017-04-16T13:00:32.898Z,4.85
2017-04-16T13:01:32.410Z,4.75
2017-04-16T13:02:31.613Z,4.40
2017-04-16T13:03:30.837Z,4.97
2017-04-16T13:04:30.056Z,4.67
2017-04-16T13:05:29.273Z,4.77
2017-04-16T13:06:28.484Z,4.95
2017-04-16T13:07:27.716Z,4.42